Time;durP1;ratioP1;P1;durP2;ratioP2;P2;SDS_P1;SDS_P2;PMS_P1;PMS_P2;Temp;Humidity;BMP_temperature;BMP_pressure;BME280_temperature;BME280_humidity;BME280_pressure;Samples;Min_cycle;Max_cycle;Signal;HPM_P1;HPM_P2
2023/02/21 02:15:40;;;;;;;5.87;3.17;;;;;;;11.66;50.93;98257.81;8381943;28;20229;-65
2023/02/21 02:20:19;;;;;;;7.27;3.07;;;;;;;11.59;51.10;98265.94;8414402;28;20220;-65
2023/02/21 02:24:47;;;;;;;6.97;3.20;;;;;;;11.61;50.79;98261.53;8412150;28;20380;-65
2023/02/21 02:29:05;;;;;;;6.73;3.17;;;;;;;11.60;50.64;98257.25;8381136;28;20497;-66
2023/02/21 02:33:30;;;;;;;6.27;3.37;;;;;;;11.50;51.03;98255.06;8380896;28;20241;-65
2023/02/21 02:37:39;;;;;;;5.80;3.13;;;;;;;11.31;51.50;98252.41;8380670;28;20236;-65
2023/02/21 02:41:47;;;;;;;7.93;3.03;;;;;;;11.29;51.63;98253.38;8380729;28;20232;-65
2023/02/21 02:45:54;;;;;;;7.43;3.20;;;;;;;11.30;51.63;98255.06;8380731;28;20536;-67
2023/02/21 02:49:58;;;;;;;5.13;3.17;;;;;;;11.25;51.49;98257.00;8380855;28;20405;-67
2023/02/21 02:54:02;;;;;;;4.77;3.33;;;;;;;11.27;51.75;98255.19;8380850;28;20556;-66
2023/02/21 02:58:05;;;;;;;7.23;3.70;;;;;;;11.22;51.66;98252.81;8380615;28;20238;-66
2023/02/21 03:02:33;;;;;;;5.33;3.10;;;;;;;11.34;51.59;98249.69;8380690;28;20255;-67
2023/02/21 03:06:41;;;;;;;5.57;2.90;;;;;;;11.41;51.61;98250.28;8377581;28;20235;-66
2023/02/21 03:10:50;;;;;;;6.93;3.03;;;;;;;11.21;51.62;98209.63;8379912;28;20225;-67
2023/02/21 03:14:59;;;;;;;6.77;3.20;;;;;;;11.55;51.19;98258.28;8380008;28;20240;-66
2023/02/21 03:19:04;;;;;;;4.60;3.07;;;;;;;11.24;51.69;98224.22;8380197;28;20237;-66
2023/02/21 03:23:09;;;;;;;5.40;3.00;;;;;;;11.26;51.71;98220.66;8380184;28;20316;-66
2023/02/21 03:27:13;;;;;;;7.43;3.47;;;;;;;11.53;51.39;98247.13;8379810;28;20225;-67
2023/02/21 03:31:18;;;;;;;6.43;3.20;;;;;;;11.48;51.45;98236.13;8379646;28;20236;-67
2023/02/21 03:35:21;;;;;;;6.90;3.30;;;;;;;11.62;51.37;98253.69;8379720;28;20430;-67
2023/02/21 03:39:24;;;;;;;5.87;3.30;;;;;;;11.67;51.68;98256.06;8379725;28;20251;-67
2023/02/21 03:43:29;;;;;;;8.97;3.30;;;;;;;11.62;51.60;98248.50;8379289;28;20220;-67
2023/02/21 03:47:31;;;;;;;5.83;3.27;;;;;;;11.69;51.53;98254.22;8379183;28;20252;-66
2023/02/21 03:51:34;;;;;;;6.70;3.33;;;;;;;11.61;51.74;98244.19;8379043;28;20225;-66
2023/02/21 03:55:37;;;;;;;7.47;3.67;;;;;;;11.61;51.92;98251.16;8378803;28;20236;-66
2023/02/21 03:59:41;;;;;;;7.20;3.50;;;;;;;11.59;51.83;98252.97;8378906;28;20229;-66
2023/02/21 04:03:44;;;;;;;6.33;3.23;;;;;;;11.64;51.65;98245.84;8378078;28;20240;-66
2023/02/21 04:07:47;;;;;;;6.37;3.37;;;;;;;11.70;51.68;98248.16;8378209;28;20243;-67
2023/02/21 04:11:50;;;;;;;6.77;3.47;;;;;;;11.69;51.65;98257.69;8378526;28;20249;-67
2023/02/21 04:15:54;;;;;;;5.20;3.27;;;;;;;11.81;51.36;98258.91;8378241;28;20237;-67
2023/02/21 04:19:56;;;;;;;7.03;3.70;;;;;;;11.79;51.54;98259.88;8378477;28;20233;-67
2023/02/21 04:23:59;;;;;;;5.10;3.40;;;;;;;11.75;51.73;98248.81;8378209;28;20228;-66
2023/02/21 04:28:02;;;;;;;5.57;3.70;;;;;;;11.82;51.50;98246.75;8378313;28;20432;-66
2023/02/21 04:32:06;;;;;;;6.57;3.47;;;;;;;11.77;51.41;98246.16;8378137;28;20228;-66
2023/02/21 04:36:09;;;;;;;7.00;3.47;;;;;;;11.81;51.60;98239.91;8378461;28;20291;-66
2023/02/21 04:40:12;;;;;;;6.00;3.10;;;;;;;11.80;51.39;98243.38;8377829;28;20239;-66
2023/02/21 04:44:17;;;;;;;5.83;3.30;;;;;;;11.97;51.12;98245.25;8377933;28;20466;-66
2023/02/21 04:48:21;;;;;;;7.00;3.40;;;;;;;11.95;50.83;98236.72;8377722;28;20221;-67
2023/02/21 04:52:24;;;;;;;5.80;3.70;;;;;;;11.84;51.12;98226.78;8377845;28;20536;-65
2023/02/21 04:56:27;;;;;;;5.00;3.10;;;;;;;11.77;51.42;98228.81;8378016;28;20509;-65
2023/02/21 05:00:30;;;;;;;6.57;3.80;;;;;;;11.72;51.61;98222.97;8381440;28;20228;-65
2023/02/21 05:04:35;;;;;;;4.40;3.27;;;;;;;11.74;51.48;98218.56;8384385;28;20577;-66
2023/02/21 05:08:38;;;;;;;4.70;3.80;;;;;;;11.69;51.77;98215.31;8384494;28;20239;-65
2023/02/21 05:12:41;;;;;;;7.40;3.63;;;;;;;11.44;51.79;98208.66;8384100;28;20226;-65
2023/02/21 05:16:43;;;;;;;7.13;3.97;;;;;;;11.39;52.06;98187.25;8383308;28;20278;-66
2023/02/21 05:20:48;;;;;;;6.70;3.60;;;;;;;11.55;51.98;98208.16;8383891;28;20233;-66
2023/02/21 05:24:51;;;;;;;5.47;3.53;;;;;;;11.59;52.17;98214.06;8383675;28;20225;-66
2023/02/21 05:28:54;;;;;;;6.23;3.80;;;;;;;11.63;52.18;98211.28;8383935;28;20428;-66
2023/02/21 05:32:56;;;;;;;7.00;4.03;;;;;;;11.69;51.82;98215.31;8383465;28;20405;-66
2023/02/21 05:37:01;;;;;;;6.43;3.97;;;;;;;11.68;51.78;98213.66;8383527;28;20236;-66
2023/02/21 05:41:04;;;;;;;8.07;4.03;;;;;;;11.74;51.82;98211.59;8383484;28;20225;-66
2023/02/21 05:45:08;;;;;;;6.20;3.60;;;;;;;11.73;51.97;98222.91;8383384;28;20243;-65
2023/02/21 05:49:11;;;;;;;4.97;3.60;;;;;;;11.74;51.99;98213.38;8383209;28;20228;-65
2023/02/21 05:53:15;;;;;;;7.10;3.80;;;;;;;11.77;51.63;98210.66;8382845;28;20221;-65
2023/02/21 05:57:18;;;;;;;8.47;3.77;;;;;;;11.75;51.66;98215.06;8383171;28;20235;-66
2023/02/21 06:01:21;;;;;;;5.57;3.90;;;;;;;11.74;52.05;98213.38;8382711;28;20240;-66
2023/02/21 06:05:27;;;;;;;6.97;3.67;;;;;;;11.77;51.54;98212.41;8382425;28;20294;-66
2023/02/21 06:09:31;;;;;;;7.47;4.20;;;;;;;11.72;51.75;98212.59;8382497;28;20303;-66
2023/02/21 06:13:33;;;;;;;5.73;3.80;;;;;;;11.71;51.90;98221.31;8381083;28;20220;-65
2023/02/21 06:17:36;;;;;;;7.20;3.80;;;;;;;11.71;52.12;98219.56;8382202;28;20236;-65
2023/02/21 06:21:40;;;;;;;7.73;3.93;;;;;;;11.80;51.65;98212.25;8381307;28;20225;-65
2023/02/21 06:25:45;;;;;;;9.87;4.27;;;;;;;11.69;51.99;98212.72;8381335;28;20413;-66
2023/02/21 06:29:48;;;;;;;7.67;5.00;;;;;;;11.78;52.17;98217.50;8381943;28;20285;-65
2023/02/21 06:33:52;;;;;;;7.43;4.63;;;;;;;11.83;52.12;98223.34;8381277;28;20237;-66
2023/02/21 06:37:54;;;;;;;9.20;5.50;;;;;;;11.89;51.82;98227.41;8381180;28;20551;-66
2023/02/21 06:41:58;;;;;;;9.73;5.83;;;;;;;11.82;52.19;98220.81;8381299;28;20229;-66
2023/02/21 06:46:03;;;;;;;7.90;5.77;;;;;;;11.89;52.00;98222.22;8381209;28;20233;-66
2023/02/21 06:50:06;;;;;;;9.33;5.80;;;;;;;11.96;51.49;98205.50;8380806;28;20241;-65
2023/02/21 06:54:13;;;;;;;11.47;6.67;;;;;;;11.97;51.62;98221.91;8381000;28;20415;-65
2023/02/21 06:58:17;;;;;;;9.47;6.90;;;;;;;12.17;51.30;98213.22;8380940;28;20225;-66
2023/02/21 07:02:21;;;;;;;8.73;6.53;;;;;;;12.63;50.00;98222.22;8380552;28;20339;-66
2023/02/21 07:06:24;;;;;;;8.43;5.60;;;;;;;12.44;50.47;98218.84;8380184;28;20233;-67
2023/02/21 07:10:31;;;;;;;8.77;5.77;;;;;;;12.75;49.39;98220.78;8380552;28;20221;-66
2023/02/21 07:14:35;;;;;;;8.67;5.40;;;;;;;13.01;49.19;98226.47;8380310;28;20237;-66
2023/02/21 07:18:38;;;;;;;7.30;5.37;;;;;;;12.78;49.63;98227.59;8379954;28;20420;-66
2023/02/21 07:22:41;;;;;;;6.47;5.10;;;;;;;13.42;48.22;98229.59;8379978;28;20433;-66
2023/02/21 07:26:43;;;;;;;7.23;5.47;;;;;;;13.70;47.21;98222.94;8379585;28;20225;-66
2023/02/21 07:30:48;;;;;;;7.40;4.93;;;;;;;14.00;46.70;98232.63;8379345;28;20233;-67
2023/02/21 07:34:51;;;;;;;8.03;5.37;;;;;;;14.20;46.58;98229.78;8379293;28;20243;-68
2023/02/21 07:38:54;;;;;;;7.43;5.30;;;;;;;14.01;46.96;98237.75;8379959;28;20234;-67
2023/02/21 07:42:58;;;;;;;9.17;6.50;;;;;;;13.66;47.85;98235.25;8379853;28;20478;-67
2023/02/21 07:47:02;;;;;;;9.10;5.80;;;;;;;13.87;46.59;98207.25;8379933;28;20247;-67
2023/02/21 07:51:07;;;;;;;7.90;6.80;;;;;;;14.38;46.11;98242.72;8379930;28;20232;-66
2023/02/21 07:55:11;;;;;;;6.77;5.23;;;;;;;14.98;45.22;98258.47;8379223;28;20234;-67
2023/02/21 07:59:14;;;;;;;7.73;5.23;;;;;;;15.10;44.29;98254.31;8379165;28;20236;-67
2023/02/21 08:03:18;;;;;;;8.57;5.77;;;;;;;15.42;43.77;98251.53;8379144;28;20242;-66
2023/02/21 08:07:22;;;;;;;9.60;5.70;;;;;;;15.68;43.19;98260.44;8378998;28;20242;-67
2023/02/21 08:11:24;;;;;;;7.47;5.47;;;;;;;15.95;42.52;98223.97;8378778;28;20232;-67
2023/02/21 08:15:28;;;;;;;7.43;5.53;;;;;;;16.45;41.21;98260.94;8378693;28;20241;-67
2023/02/21 08:19:32;;;;;;;6.93;5.70;;;;;;;16.99;40.25;98266.19;8378743;28;20221;-67
2023/02/21 08:23:34;;;;;;;6.30;4.93;;;;;;;17.23;40.27;98270.75;8378577;28;20226;-68
2023/02/21 08:27:39;;;;;;;5.90;4.70;;;;;;;17.56;39.47;98274.63;8378946;28;20228;-66
2023/02/21 08:31:43;;;;;;;7.53;5.83;;;;;;;17.28;39.64;98273.88;8378562;28;20240;-67
2023/02/21 08:35:47;;;;;;;9.23;5.20;;;;;;;17.67;38.89;98276.50;8378216;28;20232;-67
2023/02/21 08:39:52;;;;;;;5.80;5.03;;;;;;;17.69;39.07;98285.13;8378849;28;20228;-68
2023/02/21 08:43:55;;;;;;;6.10;4.90;;;;;;;16.91;40.39;98292.00;8378331;28;20247;-68
2023/02/21 08:47:58;;;;;;;9.10;5.70;;;;;;;16.01;41.76;98294.16;8378486;28;20547;-68
2023/02/21 08:52:02;;;;;;;6.73;5.27;;;;;;;16.14;42.01;98285.53;8378600;28;20548;-68
2023/02/21 08:56:05;;;;;;;7.27;4.90;;;;;;;15.82;43.62;98299.66;8378306;28;20238;-69
2023/02/21 09:00:11;;;;;;;8.07;5.60;;;;;;;15.56;43.92;98303.78;8378053;28;20325;-67
2023/02/21 09:04:13;;;;;;;6.03;5.43;;;;;;;15.17;44.46;98306.94;8377742;28;20226;-68
2023/02/21 09:08:19;;;;;;;6.73;5.27;;;;;;;15.10;45.00;98310.81;8376939;28;20228;-67
2023/02/21 09:12:23;;;;;;;5.33;4.73;;;;;;;14.65;45.85;98301.13;8378032;28;20233;-68
2023/02/21 09:16:26;;;;;;;7.47;5.17;;;;;;;14.83;45.91;98311.47;8377870;28;20231;-68
2023/02/21 09:20:28;;;;;;;8.37;5.47;;;;;;;14.42;47.48;98322.41;8377808;28;20232;-69
2023/02/21 09:24:32;;;;;;;6.50;5.23;;;;;;;14.77;46.35;98325.69;8377836;28;20232;-68
2023/02/21 09:28:42;;;;;;;5.77;5.13;;;;;;;14.86;46.36;98314.75;8377197;28;20533;-68
2023/02/21 09:32:48;;;;;;;6.33;5.40;;;;;;;14.72;46.55;98316.47;8376703;28;20229;-67
2023/02/21 09:36:51;;;;;;;7.87;5.13;;;;;;;14.78;46.84;98316.13;8377013;28;20234;-67
2023/02/21 09:40:58;;;;;;;7.17;5.03;;;;;;;14.80;46.37;98286.41;8377068;28;20228;-68
2023/02/21 09:45:01;;;;;;;8.17;5.00;;;;;;;14.76;46.72;98305.78;8377970;28;20539;-68
2023/02/21 09:49:12;;;;;;;6.63;5.17;;;;;;;14.88;46.95;98279.94;8383156;28;20362;-68
2023/02/21 09:53:20;;;;;;;7.90;5.17;;;;;;;15.02;46.67;98293.88;8382620;28;20586;-68
2023/02/21 09:57:25;;;;;;;6.47;5.00;;;;;;;14.99;46.87;98283.59;8383033;28;20236;-68
2023/02/21 10:01:37;;;;;;;4.93;3.27;;;;;;;16.41;63.74;98293.41;8382653;28;20275;-68
2023/02/21 10:05:44;;;;;;;7.13;3.70;;;;;;;16.85;53.00;98292.41;8382525;28;20474;-68
2023/02/21 10:09:52;;;;;;;7.03;4.13;;;;;;;16.89;49.52;98291.28;8382100;28;20257;-68
2023/02/21 10:14:02;;;;;;;6.23;5.20;;;;;;;16.37;45.22;98289.31;8382473;28;20225;-68
2023/02/21 10:18:09;;;;;;;7.30;5.13;;;;;;;15.92;45.65;98283.44;8382299;28;20240;-69
2023/02/21 10:22:16;;;;;;;5.90;4.90;;;;;;;15.99;45.78;98279.47;8382121;28;20232;-69
2023/02/21 10:26:23;;;;;;;4.60;4.20;;;;;;;15.69;46.47;98283.00;8382031;28;20505;-68
2023/02/21 10:30:34;;;;;;;5.97;4.83;;;;;;;15.36;47.13;98286.66;8364393;28;20338;-68
2023/02/21 10:34:37;;;;;;;5.60;4.63;;;;;;;15.37;47.28;98285.75;8381494;28;20395;-68
2023/02/21 10:38:41;;;;;;;6.33;4.43;;;;;;;15.42;46.99;98267.19;8381311;28;20237;-68
2023/02/21 10:42:48;;;;;;;5.13;4.43;;;;;;;15.60;47.10;98270.50;8389152;28;20229;-68
2023/02/21 10:47:00;;;;;;;5.10;3.93;;;;;;;16.21;46.11;98271.16;8381852;28;20230;-68
2023/02/21 10:51:08;;;;;;;4.70;4.20;;;;;;;16.18;46.27;98269.59;8381251;28;20523;-68
2023/02/21 10:55:16;;;;;;;5.93;4.20;;;;;;;15.89;45.85;98208.69;8380930;28;20227;-68
2023/02/21 10:59:36;;;;;;;4.80;4.10;;;;;;;16.11;46.92;98268.28;8380360;28;20231;-69
2023/02/21 11:03:47;;;;;;;4.53;3.40;;;;;;;16.04;46.84;98227.81;8380777;28;20227;-68
2023/02/21 11:07:59;;;;;;;5.90;3.30;;;;;;;16.30;47.12;98256.69;8413212;28;20241;-68
2023/02/21 11:12:07;;;;;;;3.80;3.40;;;;;;;16.26;46.89;98253.44;8413889;28;20240;-69
2023/02/21 11:16:12;;;;;;;3.57;3.27;;;;;;;16.05;47.38;98247.78;8413578;28;20409;-67
2023/02/21 11:20:22;;;;;;;2.97;2.77;;;;;;;16.36;47.05;98238.84;8413547;28;20239;-68
2023/02/21 11:24:26;;;;;;;2.53;2.30;;;;;;;16.09;47.94;98232.72;8412878;28;20245;-68
2023/02/21 11:28:29;;;;;;;2.60;2.40;;;;;;;16.36;47.38;98232.78;8412607;28;20520;-68
2023/02/21 11:32:35;;;;;;;2.50;2.30;;;;;;;16.37;47.63;98226.59;8413214;28;20225;-68
2023/02/21 11:36:41;;;;;;;2.80;2.37;;;;;;;16.48;47.17;98221.53;8412858;28;20381;-68
2023/02/21 11:40:46;;;;;;;2.67;2.27;;;;;;;16.89;47.00;98223.25;8379245;28;20227;-68
2023/02/21 11:45:02;;;;;;;2.43;2.20;;;;;;;16.74;46.92;98214.59;8379464;28;20223;-68
2023/02/21 11:49:14;;;;;;;2.13;1.93;;;;;;;17.17;46.07;98203.09;8379429;28;20311;-68
2023/02/21 11:53:24;;;;;;;1.83;1.73;;;;;;;17.98;44.49;98196.66;8379470;28;20228;-69
2023/02/21 11:57:32;;;;;;;2.07;1.60;;;;;;;18.78;42.64;98193.50;8379111;28;20558;-69
2023/02/21 12:01:40;;;;;;;1.93;1.83;;;;;;;18.22;43.84;98180.97;8379610;28;20232;-69
2023/02/21 12:05:50;;;;;;;1.63;1.50;;;;;;;18.12;43.90;98179.94;8378432;28;20584;-68
2023/02/21 12:09:59;;;;;;;1.83;1.60;;;;;;;18.64;43.42;98173.53;8378153;28;20231;-68
2023/02/21 12:14:14;;;;;;;4.23;1.60;;;;;;;18.70;43.01;98169.63;8378958;28;20223;-69
2023/02/21 12:18:29;;;;;;;1.57;1.47;;;;;;;18.73;42.46;98159.75;8379122;28;20232;-69
2023/02/21 12:22:43;;;;;;;1.50;1.40;;;;;;;19.18;42.46;98152.94;8378846;28;20426;-68
2023/02/21 12:26:54;;;;;;;1.53;1.43;;;;;;;19.34;41.96;98149.03;8378304;28;20244;-69
2023/02/21 12:31:10;;;;;;;1.47;1.33;;;;;;;19.11;42.33;98145.56;8378840;28;20225;-69
2023/02/21 12:35:38;;;;;;;2.17;1.50;;;;;;;18.23;43.51;98135.47;8378571;28;20217;-68
2023/02/21 12:40:04;;;;;;;1.97;1.40;;;;;;;17.98;44.40;98128.53;8377951;28;20221;-70
2023/02/21 12:44:14;;;;;;;1.50;1.30;;;;;;;18.46;43.81;98112.78;8378362;28;20228;-69
2023/02/21 12:48:21;;;;;;;1.50;1.40;;;;;;;19.01;43.17;98104.38;8378501;28;20225;-69
2023/02/21 12:52:28;;;;;;;1.37;1.10;;;;;;;18.69;43.49;98100.56;8378299;28;20520;-69
2023/02/21 12:56:37;;;;;;;3.23;1.23;;;;;;;19.19;42.46;98091.59;8377869;28;20525;-69
2023/02/21 13:00:46;;;;;;;1.43;1.30;;;;;;;19.09;42.50;98096.72;8378142;28;20226;-70
2023/02/21 13:04:56;;;;;;;1.53;1.30;;;;;;;18.35;41.98;97909.13;8377122;28;20221;-69
2023/02/21 13:09:10;;;;;;;1.17;0.97;;;;;;;19.64;41.18;98088.94;8377731;28;20234;-69
2023/02/21 13:13:15;;;;;;;1.23;1.10;;;;;;;19.86;41.04;98078.44;8377776;28;20553;-69
2023/02/21 13:17:20;;;;;;;1.60;1.10;;;;;;;19.82;41.83;98077.00;8377738;28;20266;-70
2023/02/21 13:21:33;;;;;;;1.27;1.20;;;;;;;19.37;42.19;98065.72;8380467;28;20225;-69
2023/02/21 13:25:58;;;;;;;1.67;1.20;;;;;;;19.79;42.01;98061.47;8383637;28;20221;-68
2023/02/21 13:30:06;;;;;;;2.30;1.27;;;;;;;20.03;41.53;98057.81;8383453;28;20239;-69
2023/02/21 13:34:11;;;;;;;1.10;1.10;;;;;;;20.19;40.69;98033.75;8383442;28;20486;-69
2023/02/21 13:38:14;;;;;;;1.00;1.00;;;;;;;19.83;42.49;98047.13;8383082;28;20230;-69
2023/02/21 13:42:19;;;;;;;1.90;1.37;;;;;;;20.20;41.82;98051.16;8382583;28;20570;-69
2023/02/21 13:46:38;;;;;;;1.47;1.20;;;;;;;19.91;42.03;98044.72;8383147;28;20519;-70
2023/02/21 13:50:46;;;;;;;1.67;1.20;;;;;;;19.00;43.86;98037.94;8381499;28;20227;-69
2023/02/21 13:55:25;;;;;;;1.47;1.00;;;;;;;19.29;43.23;98043.50;8415100;28;20318;-68
2023/02/21 13:59:34;;;;;;;1.63;1.13;;;;;;;19.77;42.74;98029.25;8408364;28;20347;-69
2023/02/21 14:03:36;;;;;;;1.10;1.00;;;;;;;19.92;42.67;98032.41;8415248;28;20234;-69
2023/02/21 14:07:45;;;;;;;1.30;1.20;;;;;;;20.35;41.56;98009.63;8415527;28;20257;-68
2023/02/21 14:11:51;;;;;;;1.90;1.30;;;;;;;19.95;41.25;98005.88;8415203;28;20224;-69
2023/02/21 14:15:58;;;;;;;1.20;1.10;;;;;;;19.45;43.25;98010.78;8416008;28;20243;-68
2023/02/21 14:20:07;;;;;;;1.97;0.97;;;;;;;19.97;42.37;98009.22;8415485;28;20509;-69
2023/02/21 14:24:20;;;;;;;1.37;1.00;;;;;;;19.83;42.59;98004.25;8415286;28;20244;-67
2023/02/21 14:29:00;;;;;;;1.20;1.10;;;;;;;20.22;41.55;97996.66;8414567;28;20238;-70
2023/02/21 14:33:23;;;;;;;1.37;1.10;;;;;;;20.22;40.95;98005.41;8413204;28;20220;-69
2023/02/21 14:37:35;;;;;;;1.87;1.00;;;;;;;20.27;41.26;98002.38;8414716;28;20233;-69
2023/02/21 14:41:57;;;;;;;1.50;1.03;;;;;;;20.32;41.19;98000.19;8414443;28;20512;-66
2023/02/21 14:46:12;;;;;;;1.53;1.00;;;;;;;20.35;41.11;97996.47;8413834;28;20231;-67
2023/02/21 14:50:28;;;;;;;1.57;1.23;;;;;;;20.56;40.56;97994.69;8413856;28;20246;-67
2023/02/21 14:55:06;;;;;;;1.20;1.00;;;;;;;20.57;40.75;97998.13;8413903;28;20538;-68
2023/02/21 14:59:21;;;;;;;1.90;0.97;;;;;;;19.39;42.67;97996.34;8372176;28;20234;-68
2023/02/21 15:03:34;;;;;;;1.17;0.97;;;;;;;18.68;44.89;97975.63;8413673;28;20224;-68
2023/02/21 15:07:45;;;;;;;0.90;0.90;;;;;;;18.83;44.57;97988.53;8413478;28;20305;-68
2023/02/21 15:11:50;;;;;;;1.57;0.93;;;;;;;18.90;45.01;97985.31;8413082;28;20227;-69
2023/02/21 15:15:59;;;;;;;0.83;0.83;;;;;;;19.26;43.80;97964.16;8413019;28;20537;-69
2023/02/21 15:20:05;;;;;;;1.17;1.07;;;;;;;19.03;44.29;97992.22;8413274;28;20240;-69
2023/02/21 15:24:13;;;;;;;0.70;0.70;;;;;;;19.22;44.15;97987.19;8413500;28;20224;-68
2023/02/21 15:28:22;;;;;;;0.93;0.93;;;;;;;19.11;44.18;97985.44;8413308;28;20399;-69
2023/02/21 15:32:28;;;;;;;1.30;1.20;;;;;;;18.82;44.89;97965.88;8413249;28;20225;-69
2023/02/21 15:36:31;;;;;;;1.10;1.00;;;;;;;18.83;45.26;97976.28;8412992;28;20220;-69
2023/02/21 15:40:34;;;;;;;0.70;0.70;;;;;;;18.66;45.75;97979.34;8412997;28;20493;-69
2023/02/21 15:44:40;;;;;;;1.77;0.93;;;;;;;18.23;46.84;97978.19;8412748;28;20225;-69
2023/02/21 15:48:46;;;;;;;1.60;0.83;;;;;;;18.02;47.39;97966.72;8379702;28;20517;-69
2023/02/21 15:52:52;;;;;;;0.93;0.80;;;;;;;17.12;47.98;97878.97;8379877;28;20229;-69
2023/02/21 15:57:22;;;;;;;1.03;0.80;;;;;;;17.74;47.77;97966.94;8380317;28;20525;-70
2023/02/21 16:01:25;;;;;;;1.27;0.87;;;;;;;17.51;48.43;97970.41;8379833;28;20235;-68
2023/02/21 16:05:30;;;;;;;2.13;0.80;;;;;;;17.32;48.71;97953.41;8379939;28;20225;-67
2023/02/21 16:09:35;;;;;;;1.10;0.90;;;;;;;17.20;49.31;97960.34;8379518;28;20225;-68
2023/02/21 16:13:38;;;;;;;1.00;0.90;;;;;;;17.03;49.69;97962.50;8380118;28;20225;-68
2023/02/21 16:17:43;;;;;;;1.27;1.00;;;;;;;16.86;50.03;97961.91;8379099;28;20238;-68
2023/02/21 16:21:48;;;;;;;1.07;1.00;;;;;;;16.74;50.38;97960.13;8379181;28;20574;-68
2023/02/21 16:25:58;;;;;;;0.93;0.80;;;;;;;16.68;50.59;97964.00;8378904;28;20243;-67
2023/02/21 16:30:01;;;;;;;1.80;0.90;;;;;;;16.58;50.63;97957.72;8379068;28;20243;-68
2023/02/21 16:34:06;;;;;;;1.27;1.10;;;;;;;16.40;51.01;97960.66;8379380;28;20369;-67
2023/02/21 16:38:14;;;;;;;1.50;1.10;;;;;;;16.25;51.25;97964.31;8379000;28;20528;-68
2023/02/21 16:42:18;;;;;;;1.20;1.10;;;;;;;16.21;51.45;97955.84;8378534;28;20518;-68
2023/02/21 16:46:24;;;;;;;1.13;0.90;;;;;;;16.15;51.28;97961.50;8377780;28;20232;-69
2023/02/21 16:50:33;;;;;;;1.27;1.00;;;;;;;16.06;52.06;97966.50;8378365;28;20239;-70
2023/02/21 16:54:37;;;;;;;2.67;2.10;;;;;;;16.69;50.22;97975.28;8376388;28;20437;-69
2023/02/21 16:58:44;;;;;;;1.40;1.10;;;;;;;16.02;51.97;97963.25;8384899;28;20235;-69
2023/02/21 17:02:47;;;;;;;1.10;1.00;;;;;;;15.92;52.16;97970.84;8383941;28;20397;-70
2023/02/21 17:06:53;;;;;;;1.10;1.00;;;;;;;15.92;52.15;97981.31;8383534;28;20440;-69
2023/02/21 17:10:57;;;;;;;3.53;2.60;;;;;;;15.76;53.47;97991.94;8384499;28;20235;-69
2023/02/21 17:15:00;;;;;;;4.10;3.80;;;;;;;15.63;52.99;97977.94;8384364;28;20517;-69
2023/02/21 17:19:02;;;;;;;9.93;9.03;;;;;;;14.99;52.98;97889.00;8383971;28;20555;-69
2023/02/21 17:23:05;;;;;;;8.93;8.00;;;;;;;15.54;52.99;97981.16;8384156;28;20253;-69
2023/02/21 17:27:10;;;;;;;8.57;7.77;;;;;;;15.44;52.78;97979.13;8384014;28;20225;-69
2023/02/21 17:31:17;;;;;;;12.60;10.93;;;;;;;15.05;53.40;97946.81;8384436;28;20408;-69
2023/02/21 17:35:23;;;;;;;9.60;8.10;;;;;;;15.25;53.38;97986.47;8383580;28;20337;-69
2023/02/21 17:39:26;;;;;;;5.10;4.70;;;;;;;15.08;53.68;97982.31;8384107;28;20537;-70
2023/02/21 17:43:30;;;;;;;4.40;3.57;;;;;;;14.97;53.96;97996.00;8383716;28;20233;-68
2023/02/21 17:47:34;;;;;;;4.13;3.73;;;;;;;14.96;53.64;97991.69;8383356;28;20280;-69
2023/02/21 17:51:36;;;;;;;5.20;3.10;;;;;;;14.84;53.92;97993.31;8383447;28;20221;-69
2023/02/21 17:55:39;;;;;;;6.03;4.17;;;;;;;14.78;54.11;98000.69;8383365;28;20232;-70
2023/02/21 17:59:44;;;;;;;53.73;27.43;;;;;;;14.59;54.02;97978.31;8382712;28;20240;-70
2023/02/21 18:03:47;;;;;;;93.77;39.80;;;;;;;14.65;54.09;97990.97;8381646;28;20432;-71
2023/02/21 18:07:52;;;;;;;20.33;11.90;;;;;;;14.56;54.57;98003.69;8382824;28;20233;-68
2023/02/21 18:11:56;;;;;;;23.87;14.63;;;;;;;14.53;54.65;97996.91;8382901;28;20228;-69
2023/02/21 18:16:00;;;;;;;19.37;12.67;;;;;;;14.42;54.65;98000.16;8382170;28;20535;-69
2023/02/21 18:20:04;;;;;;;13.10;9.57;;;;;;;14.34;54.49;97998.94;8382407;28;20362;-70
2023/02/21 18:24:08;;;;;;;11.03;8.67;;;;;;;14.27;54.94;97995.84;8382523;28;20400;-70
2023/02/21 18:28:10;;;;;;;7.67;5.70;;;;;;;14.21;55.02;97994.44;8381556;28;20235;-69
2023/02/21 18:32:15;;;;;;;7.43;5.40;;;;;;;14.07;55.06;97987.44;8381815;28;20239;-69
2023/02/21 18:36:18;;;;;;;7.70;6.90;;;;;;;14.05;55.31;97996.25;8381787;28;20224;-68
2023/02/21 18:40:32;;;;;;;10.67;7.53;;;;;;;14.12;54.99;97994.13;8381876;28;20360;-71
2023/02/21 18:44:35;;;;;;;8.33;7.47;;;;;;;14.02;55.13;97986.84;8381997;28;20243;-67
2023/02/21 18:48:41;;;;;;;45.27;32.60;;;;;;;14.00;54.87;97991.31;8381591;28;20252;-69
2023/02/21 18:52:45;;;;;;;28.43;22.60;;;;;;;13.91;54.98;97994.44;8380866;28;20283;-69
2023/02/21 18:56:50;;;;;;;9.90;7.50;;;;;;;13.79;54.71;97987.34;8381162;28;20231;-70
2023/02/21 19:00:53;;;;;;;8.00;5.07;;;;;;;13.76;54.86;98000.53;8380854;28;20539;-69
2023/02/21 19:04:57;;;;;;;6.37;5.77;;;;;;;13.73;55.03;97998.94;8380326;28;20239;-69
2023/02/21 19:09:03;;;;;;;5.53;5.03;;;;;;;13.59;54.45;97997.09;8380815;28;20243;-69
2023/02/21 19:13:05;;;;;;;5.30;4.30;;;;;;;13.45;55.29;97997.06;8381579;28;20238;-69
2023/02/21 19:17:09;;;;;;;6.13;5.63;;;;;;;13.48;55.49;97999.50;8381437;28;20414;-69
2023/02/21 19:21:13;;;;;;;10.40;8.00;;;;;;;13.41;55.22;98004.19;8380794;28;20512;-69
2023/02/21 19:25:17;;;;;;;8.30;7.50;;;;;;;13.43;55.37;98004.09;8381160;28;20228;-70
2023/02/21 19:29:20;;;;;;;10.50;9.43;;;;;;;13.31;55.79;98000.44;8380520;28;20234;-69
2023/02/21 19:33:25;;;;;;;15.73;14.13;;;;;;;13.33;55.46;97995.97;8379872;28;20228;-68
2023/02/21 19:37:31;;;;;;;17.90;15.97;;;;;;;13.17;55.40;98000.28;8380247;28;20441;-69
2023/02/21 19:41:35;;;;;;;17.07;14.77;;;;;;;13.15;55.72;97996.94;8380368;28;20237;-69
2023/02/21 19:45:38;;;;;;;15.20;13.67;;;;;;;13.09;55.89;97993.75;8380389;28;20225;-69
2023/02/21 19:49:44;;;;;;;13.77;12.37;;;;;;;13.05;55.71;97994.00;8379512;28;20221;-68
2023/02/21 19:53:49;;;;;;;15.00;13.50;;;;;;;13.08;55.82;97994.69;8379974;28;20327;-68
2023/02/21 19:57:51;;;;;;;22.33;19.93;;;;;;;12.90;55.52;97982.66;8379657;28;20556;-68
2023/02/21 20:01:54;;;;;;;25.10;22.50;;;;;;;12.82;55.10;97990.88;8378701;28;20557;-69
2023/02/21 20:06:00;;;;;;;22.00;19.67;;;;;;;12.75;55.17;97999.91;8379569;28;20549;-69
2023/02/21 20:10:05;;;;;;;39.40;32.60;;;;;;;12.73;55.28;98000.91;8379707;28;20229;-69
2023/02/21 20:14:07;;;;;;;15.97;13.93;;;;;;;12.74;55.58;97998.25;8379004;28;20226;-69
2023/02/21 20:18:13;;;;;;;123.70;52.33;;;;;;;14.87;71.62;98002.72;8379037;28;20422;-69
2023/02/21 20:22:16;;;;;;;21.80;14.13;;;;;;;15.08;56.53;97981.44;8378854;28;20233;-69
2023/02/21 20:26:22;;;;;;;11.97;10.83;;;;;;;14.59;51.94;97995.75;8378767;28;20224;-68
2023/02/21 20:30:25;;;;;;;11.43;10.43;;;;;;;13.51;53.38;98006.28;8378354;28;20232;-69
2023/02/21 20:34:28;;;;;;;11.33;10.20;;;;;;;13.27;53.69;98002.31;8378577;28;20244;-69
2023/02/21 20:38:30;;;;;;;9.67;8.60;;;;;;;12.79;54.31;97969.41;8378092;28;20238;-69
2023/02/21 20:42:35;;;;;;;8.57;7.88;;;;;;;13.58;52.06;98005.84;8376531;28;20406;-69
2023/02/21 20:46:38;;;;;;;8.30;7.43;;;;;;;12.90;54.08;98000.84;8377817;28;20230;-69
2023/02/21 20:50:41;;;;;;;8.45;7.70;;;;;;;13.35;52.59;98007.13;8376705;28;20764;-68
2023/02/21 20:54:44;;;;;;;8.23;7.53;;;;;;;12.63;54.60;98008.34;8411028;28;20235;-68
2023/02/21 20:58:49;;;;;;;9.53;7.03;;;;;;;12.59;54.37;98001.63;8410979;28;20222;-69
2023/02/21 21:02:52;;;;;;;7.17;6.57;;;;;;;12.50;55.17;98000.34;8410765;28;20239;-69
2023/02/21 21:06:57;;;;;;;8.20;6.83;;;;;;;12.41;54.79;98001.66;8411077;28;20228;-69
2023/02/21 21:10:59;;;;;;;7.33;6.73;;;;;;;12.31;55.30;97988.28;8411116;28;20230;-69
2023/02/21 21:15:04;;;;;;;8.00;7.10;;;;;;;12.28;55.48;97993.66;8410949;28;20221;-69
2023/02/21 21:19:07;;;;;;;18.27;16.37;;;;;;;12.21;55.31;97999.25;8410340;28;20232;-69
2023/02/21 21:23:10;;;;;;;12.40;11.20;;;;;;;12.23;54.69;97994.81;8410936;28;20248;-70
2023/02/21 21:27:14;;;;;;;8.53;7.63;;;;;;;12.10;55.02;97995.41;8411024;28;20243;-70
2023/02/21 21:31:18;;;;;;;7.70;6.93;;;;;;;11.84;55.29;97995.81;8410692;28;20291;-70